Grimsby, United Kingdom
Current Conditions -  °F | °C
As of 2:20 PM on Friday 19 Dec 2014 (Local Time) from EGNJ Reporting Station
Scattered Clouds Scattered Clouds  
Wind Chill: 38°   Ceiling: Unl
Heat Index: 46°   Visibility: 6mi
Dew Point: 37°   Wind: 25mph
Humidity: 71%   Direction: 260°W
Pressure: 29.85"   Gusts: 41mph
Location:  53.57°N, 0.08°W
Report Text: EGNJ 191420Z 26022G36KT 9999 SCT035 08/03 Q1011
Loading
Personal Weather Stations






























Interactive Weather Map New forecast layout! Learn more

10-Day Weather Forecast

Advertisements
Track Severe Weather on mobile